Portada
METAR-TAF:

METAR-TAF

Aeropuertos :

Albenga, Italia

latitud: 44-03N, longitud: 008-07E, altitud: 45 m

Observación

El informe se hizo hace 1 hora y 15 minutos, a las 06:00 UTC
Viento 15 kt del norte-noreste, variando entre norte y noreste
Temperatura 9°C
Humedad 57%
Presión 1017 hPa
Visibilidad 10 km o más
Cielo nuboso a una altura de 4000 ft

METAR: LIMG 160600Z 02015KT 350V050 9999 BKN040 09/01 Q1017

Hora: 09:15 (07:15 UTC)

Pronóstico

El informe se hizo hace 1 hora y 19 minutos, a las 05:56 UTC
Pronóstico válido del 16 a las 07 UTC al 16 a las 15 UTC
Viento 16 kt del norte-noreste
Visibilidad 10 km o más
Cielo nuboso a una altura de 3500 ft
Temporalmente
del 16 a las 08 UTC al 16 a las 14 UTC
chaparrones de lluvia

TAF: LIMG 160556Z 1607/1615 02016KT 9999 BKN035 TEMPO 1608/1614 SHRA

Observaciones y pronósticos meteorológicos de más de 4000 aeropuertos (mensajes METAR y TAF).

Los puntos amarillos y rojos representan las estaciones disponibles.

Ponga el ratón en el punto deseado para ver el nombre de la estación.

Haga clic para ver las observaciones y los pronósticos meteorológicos.

Para cambiar el mapa : haga clic en los botones verdes con una cruz de color negro para hacer un zoom, en el botón verde con un guión para alejar o en las flechas verdes para mapas adyacentes.


METAR-TAF: